Time;durP1;ratioP1;P1;durP2;ratioP2;P2;SDS_P1;SDS_P2;PMS_P1;PMS_P2;Temp;Humidity;BMP_temperature;BMP_pressure;BME280_temperature;BME280_humidity;BME280_pressure;Samples;Min_cycle;Max_cycle;Signal;HPM_P1;HPM_P2
2022/04/03 00:01:19;;;;;;;4.72;1.65;;;5.10;64.10;;;;;;5052108;28;20064;-77
2022/04/03 00:03:45;;;;;;;4.63;1.80;;;5.00;64.20;;;;;;5052409;28;20108;-77
2022/04/03 00:06:11;;;;;;;4.80;0.90;;;5.00;65.10;;;;;;5055069;28;20029;-78
2022/04/03 00:08:37;;;;;;;5.18;1.67;;;5.00;64.50;;;;;;5055974;28;20025;-77
2022/04/03 00:11:03;;;;;;;2.70;1.33;;;4.80;65.10;;;;;;5055728;28;20053;-77
2022/04/03 00:13:29;;;;;;;2.58;1.40;;;4.90;65.80;;;;;;5055809;28;20036;-78
2022/04/03 00:15:56;;;;;;;4.90;1.10;;;4.90;65.10;;;;;;5055872;28;20063;-78
2022/04/03 00:18:22;;;;;;;4.43;1.42;;;4.90;65.00;;;;;;5056116;28;20048;-78
2022/04/03 00:20:48;;;;;;;4.43;1.50;;;4.80;65.20;;;;;;5055667;28;20480;-78
2022/04/03 00:23:13;;;;;;;4.13;0.95;;;4.70;64.80;;;;;;5055943;28;20031;-78
2022/04/03 00:25:39;;;;;;;2.95;0.80;;;4.60;65.30;;;;;;5055311;28;20399;-78
2022/04/03 00:28:06;;;;;;;5.30;1.50;;;4.50;65.40;;;;;;5056141;28;20077;-78
2022/04/03 00:30:32;;;;;;;3.85;1.85;;;4.50;65.90;;;;;;5055218;28;20032;-78
2022/04/03 00:32:58;;;;;;;3.50;0.98;;;4.70;66.50;;;;;;5055575;28;20040;-78
2022/04/03 00:35:24;;;;;;;3.50;0.90;;;4.80;65.60;;;;;;5055571;28;20045;-78
2022/04/03 00:37:50;;;;;;;2.80;0.90;;;4.80;66.10;;;;;;5056000;28;20088;-78
2022/04/03 00:40:16;;;;;;;1.70;0.80;;;4.80;65.00;;;;;;5055273;28;20051;-78
2022/04/03 00:42:42;;;;;;;4.65;1.45;;;4.70;65.30;;;;;;5042412;28;20487;-78
2022/04/03 00:45:08;;;;;;;6.05;1.02;;;4.50;65.60;;;;;;5055195;28;20025;-77
2022/04/03 00:47:34;;;;;;;2.45;0.82;;;4.40;66.50;;;;;;5055554;28;20051;-77
2022/04/03 00:50:00;;;;;;;5.07;1.00;;;4.20;66.50;;;;;;5055538;28;20029;-77
2022/04/03 00:52:27;;;;;;;3.42;0.60;;;4.20;67.10;;;;;;5055391;28;20037;-77
2022/04/03 00:54:53;;;;;;;3.58;0.80;;;4.10;67.10;;;;;;5054720;28;20045;-78
2022/04/03 00:57:21;;;;;;;3.92;1.00;;;4.00;67.20;;;;;;5055499;28;20158;-78
2022/04/03 00:59:48;;;;;;;2.25;0.60;;;3.80;67.80;;;;;;5054549;28;20499;-78
2022/04/03 01:02:14;;;;;;;2.50;0.90;;;3.60;69.30;;;;;;5055256;28;20033;-77
2022/04/03 01:04:40;;;;;;;3.15;0.80;;;3.40;69.40;;;;;;5054914;28;20427;-78
2022/04/03 01:07:06;;;;;;;3.63;0.80;;;3.30;70.00;;;;;;5054994;28;20064;-78
2022/04/03 01:09:32;;;;;;;3.25;0.80;;;3.30;70.30;;;;;;5054500;28;20040;-77
2022/04/03 01:11:58;;;;;;;6.93;1.02;;;3.30;70.40;;;;;;5054758;28;20036;-76
2022/04/03 01:14:38;;;;;;;4.97;1.17;;;3.50;70.30;;;;;;5054672;28;20021;-78
2022/04/03 01:17:05;;;;;;;2.50;0.80;;;3.50;69.90;;;;;;5054513;28;20029;-78
2022/04/03 01:19:32;;;;;;;5.05;1.10;;;3.50;70.20;;;;;;5054840;28;20111;-78
2022/04/03 01:21:58;;;;;;;4.05;0.98;;;3.60;70.20;;;;;;5054854;28;20049;-78
2022/04/03 01:24:25;;;;;;;5.93;0.90;;;3.80;69.90;;;;;;5054480;28;20075;-78
2022/04/03 01:26:51;;;;;;;3.10;0.93;;;3.90;69.10;;;;;;5053363;28;20068;-78
2022/04/03 01:29:17;;;;;;;5.40;0.98;;;3.80;68.80;;;;;;5054937;28;20071;-78
2022/04/03 01:31:45;;;;;;;3.10;0.60;;;3.70;69.00;;;;;;5054467;28;20033;-78
2022/04/03 01:34:11;;;;;;;3.55;1.00;;;3.60;69.20;;;;;;5054619;28;20037;-78
2022/04/03 01:36:37;;;;;;;2.95;1.20;;;3.60;69.90;;;;;;5054692;28;20033;-78
2022/04/03 01:39:03;;;;;;;5.90;1.70;;;3.60;70.20;;;;;;5054167;28;20238;-78
2022/04/03 01:41:29;;;;;;;3.90;1.92;;;3.40;70.80;;;;;;5054213;28;20051;-78
2022/04/03 01:43:55;;;;;;;2.85;1.48;;;3.40;71.10;;;;;;5054549;28;20028;-78
2022/04/03 01:46:20;;;;;;;4.50;1.67;;;3.40;71.20;;;;;;5054136;28;20036;-78
2022/04/03 01:48:46;;;;;;;8.00;2.33;;;3.20;71.60;;;;;;5054196;28;20380;-78
2022/04/03 01:51:11;;;;;;;5.25;1.95;;;3.10;72.50;;;;;;5054051;28;20025;-78
2022/04/03 01:53:37;;;;;;;4.88;2.25;;;3.00;72.70;;;;;;5053684;28;20368;-78
2022/04/03 01:56:07;;;;;;;4.70;2.13;;;3.00;72.80;;;;;;5053995;28;20043;-78
2022/04/03 01:58:34;;;;;;;6.03;1.92;;;3.00;73.20;;;;;;5054023;28;20021;-78
2022/04/03 02:01:01;;;;;;;5.55;1.90;;;3.00;73.30;;;;;;5054347;28;20486;-77
2022/04/03 02:03:27;;;;;;;4.57;2.35;;;3.00;73.70;;;;;;5053928;28;20086;-77
2022/04/03 02:05:53;;;;;;;5.93;2.35;;;3.00;74.00;;;;;;5054135;28;20037;-78
2022/04/03 02:08:19;;;;;;;6.07;2.20;;;3.00;74.20;;;;;;5053695;28;20017;-78
2022/04/03 02:10:45;;;;;;;4.55;2.47;;;3.00;74.50;;;;;;5053676;28;20115;-78
2022/04/03 02:13:11;;;;;;;6.78;2.35;;;3.10;74.60;;;;;;5053968;28;20032;-77
2022/04/03 02:15:38;;;;;;;5.18;2.13;;;3.20;74.70;;;;;;5053360;28;20375;-77
2022/04/03 02:18:04;;;;;;;4.95;2.08;;;3.10;74.90;;;;;;5053546;28;20112;-77
2022/04/03 02:20:31;;;;;;;6.35;2.10;;;3.10;75.40;;;;;;5037721;28;20057;-77
2022/04/03 02:22:58;;;;;;;3.67;2.20;;;3.10;76.00;;;;;;5053805;28;20017;-78
2022/04/03 02:25:24;;;;;;;4.55;2.17;;;3.10;76.40;;;;;;5053481;28;20052;-78
2022/04/03 02:27:50;;;;;;;7.57;2.28;;;3.20;76.70;;;;;;5052694;28;20517;-78
2022/04/03 02:30:16;;;;;;;7.95;2.55;;;3.20;77.10;;;;;;5053316;28;20116;-78
2022/04/03 02:32:41;;;;;;;4.82;2.17;;;3.30;77.70;;;;;;5053529;28;20028;-78
2022/04/03 02:35:10;;;;;;;3.97;2.05;;;3.30;77.90;;;;;;5052664;28;20411;-78
2022/04/03 02:37:39;;;;;;;4.93;1.60;;;3.20;78.40;;;;;;5053316;28;20679;-78
2022/04/03 02:40:08;;;;;;;3.97;1.92;;;3.10;79.10;;;;;;5053303;28;20116;-77
2022/04/03 02:42:34;;;;;;;5.97;1.73;;;3.10;79.30;;;;;;5052357;28;20541;-77
2022/04/03 02:44:59;;;;;;;7.65;2.00;;;3.30;79.50;;;;;;5053382;28;20028;-77
2022/04/03 02:47:26;;;;;;;2.03;1.60;;;3.40;79.00;;;;;;5053188;28;20128;-77
2022/04/03 02:49:52;;;;;;;2.67;1.77;;;3.50;78.60;;;;;;5052993;28;20170;-77
2022/04/03 02:52:18;;;;;;;3.65;1.88;;;3.50;78.60;;;;;;5053274;28;20412;-76
2022/04/03 02:54:45;;;;;;;4.28;1.73;;;3.50;78.70;;;;;;5052771;28;20472;-76
2022/04/03 02:57:17;;;;;;;4.22;1.85;;;3.40;79.30;;;;;;5053182;28;20037;-76
2022/04/03 02:59:43;;;;;;;5.33;1.90;;;3.30;79.80;;;;;;5053128;28;20108;-76
2022/04/03 03:02:10;;;;;;;3.35;1.50;;;3.20;80.30;;;;;;5052716;28;20481;-76
2022/04/03 03:04:36;;;;;;;6.68;2.10;;;3.10;81.40;;;;;;5052688;28;20153;-76
2022/04/03 03:07:05;;;;;;;4.32;1.50;;;3.00;81.50;;;;;;5052765;28;20473;-76
2022/04/03 03:09:31;;;;;;;5.03;1.48;;;2.90;82.40;;;;;;5052602;28;20052;-76
2022/04/03 03:11:58;;;;;;;3.05;1.30;;;3.00;82.80;;;;;;5052721;28;20120;-76
2022/04/03 03:14:24;;;;;;;3.10;1.60;;;3.00;83.20;;;;;;5052702;28;20439;-75
2022/04/03 03:16:49;;;;;;;6.82;1.60;;;2.90;83.40;;;;;;5052594;28;20104;-76
2022/04/03 03:19:15;;;;;;;5.57;1.75;;;2.90;84.10;;;;;;5052443;28;20037;-75
2022/04/03 03:21:41;;;;;;;2.47;1.48;;;2.90;84.10;;;;;;5052959;28;20151;-75
2022/04/03 03:24:07;;;;;;;4.25;1.70;;;3.00;84.20;;;;;;5052608;28;20029;-76
2022/04/03 03:26:33;;;;;;;4.45;1.55;;;3.10;84.20;;;;;;5052713;28;20033;-77
2022/04/03 03:28:58;;;;;;;3.70;1.60;;;3.10;84.00;;;;;;5052776;28;20170;-76
2022/04/03 03:31:24;;;;;;;2.28;1.40;;;3.20;84.00;;;;;;5052477;28;20064;-76
2022/04/03 03:33:50;;;;;;;5.97;1.70;;;3.20;84.00;;;;;;5052486;28;20111;-76
2022/04/03 03:36:16;;;;;;;5.68;1.73;;;3.20;84.50;;;;;;5052411;28;20039;-76
2022/04/03 03:38:42;;;;;;;4.90;2.33;;;3.10;84.80;;;;;;5052857;28;20030;-76
2022/04/03 03:41:09;;;;;;;5.40;1.60;;;3.10;85.10;;;;;;5056612;28;20431;-76
2022/04/03 03:43:35;;;;;;;3.42;1.30;;;3.10;85.10;;;;;;5052028;28;20036;-76
2022/04/03 03:46:00;;;;;;;6.43;1.50;;;3.10;85.60;;;;;;5043215;28;20111;-76
2022/04/03 03:48:26;;;;;;;3.13;1.50;;;3.00;85.80;;;;;;5056404;28;20048;-76
2022/04/03 03:50:52;;;;;;;3.83;1.48;;;3.00;86.20;;;;;;5056761;28;20033;-78
2022/04/03 03:53:19;;;;;;;4.38;1.50;;;3.00;86.40;;;;;;5056336;28;20036;-78
2022/04/03 03:55:44;;;;;;;3.38;1.50;;;3.00;86.20;;;;;;5056522;28;20095;-78
2022/04/03 03:58:10;;;;;;;4.82;1.58;;;3.10;86.50;;;;;;5056705;28;20024;-78
2022/04/03 04:00:35;;;;;;;2.85;1.13;;;3.30;86.20;;;;;;5056099;28;20043;-78
2022/04/03 04:03:01;;;;;;;5.65;1.08;;;3.30;86.20;;;;;;5056187;28;20032;-79
2022/04/03 04:05:27;;;;;;;2.55;0.98;;;3.40;85.70;;;;;;5056199;28;20036;-79
2022/04/03 04:07:53;;;;;;;3.00;1.10;;;3.50;85.20;;;;;;5056404;28;20033;-77
2022/04/03 04:10:19;;;;;;;2.63;1.17;;;3.60;84.80;;;;;;5055651;28;20041;-78
2022/04/03 04:12:46;;;;;;;2.13;1.25;;;3.70;84.70;;;;;;5056134;28;20029;-78
2022/04/03 04:15:12;;;;;;;3.22;1.00;;;3.80;84.10;;;;;;5055720;28;20384;-78
2022/04/03 04:17:43;;;;;;;4.18;1.92;;;3.90;83.60;;;;;;5036531;28;20045;-78
2022/04/03 04:20:12;;;;;;;4.88;1.50;;;4.00;83.30;;;;;;5054746;28;20495;-78
2022/04/03 04:22:39;;;;;;;3.60;1.20;;;4.00;82.90;;;;;;5056172;28;20039;-78
2022/04/03 04:25:05;;;;;;;2.20;0.88;;;4.10;82.90;;;;;;5055216;28;20033;-77
2022/04/03 04:27:31;;;;;;;2.80;1.27;;;4.20;82.40;;;;;;5055950;28;20021;-76
2022/04/03 04:29:57;;;;;;;4.22;1.15;;;4.30;81.50;;;;;;5055874;28;20407;-76
2022/04/03 04:32:23;;;;;;;3.20;1.02;;;4.20;81.20;;;;;;5055436;28;20044;-76
2022/04/03 04:34:50;;;;;;;3.83;0.98;;;4.20;81.40;;;;;;5055678;28;20427;-76
2022/04/03 04:37:16;;;;;;;1.60;0.88;;;4.30;81.20;;;;;;5055695;28;20033;-76
2022/04/03 04:39:42;;;;;;;6.18;1.27;;;4.30;81.10;;;;;;5055727;28;20032;-76
2022/04/03 04:42:08;;;;;;;2.22;1.00;;;4.40;80.30;;;;;;5055356;28;20393;-76
2022/04/03 04:44:33;;;;;;;4.38;1.00;;;4.40;80.30;;;;;;5055484;28;20500;-76
2022/04/03 04:46:59;;;;;;;3.17;1.10;;;4.50;80.30;;;;;;5055221;28;20051;-76
2022/04/03 04:49:25;;;;;;;6.22;1.65;;;4.50;80.20;;;;;;5055682;28;20039;-76
2022/04/03 04:51:50;;;;;;;3.28;1.60;;;4.50;80.30;;;;;;5054411;28;20487;-76
2022/04/03 04:54:16;;;;;;;4.93;1.92;;;4.50;80.10;;;;;;5055438;28;20041;-76
2022/04/03 04:56:42;;;;;;;4.15;1.25;;;4.60;80.10;;;;;;5055309;28;20029;-76
2022/04/03 04:59:07;;;;;;;3.13;1.40;;;4.60;80.30;;;;;;5054950;28;20099;-77
2022/04/03 05:01:33;;;;;;;2.53;1.38;;;4.60;80.40;;;;;;5055355;28;20067;-76
2022/04/03 05:03:59;;;;;;;3.65;1.25;;;4.80;80.40;;;;;;5055125;28;20522;-77
2022/04/03 05:06:26;;;;;;;4.35;1.30;;;4.80;79.80;;;;;;5055319;28;20124;-76
2022/04/03 05:08:53;;;;;;;4.45;1.60;;;4.80;79.30;;;;;;5054749;28;20103;-77
2022/04/03 05:11:19;;;;;;;4.05;0.98;;;4.80;79.20;;;;;;5054915;28;20086;-76
2022/04/03 05:13:45;;;;;;;4.22;1.25;;;4.90;79.20;;;;;;5054493;28;20033;-76
2022/04/03 05:16:11;;;;;;;2.28;0.85;;;5.00;79.20;;;;;;5054948;28;20037;-76
2022/04/03 05:18:37;;;;;;;2.17;0.90;;;5.10;78.90;;;;;;5054903;28;20549;-76
2022/04/03 05:21:04;;;;;;;3.75;0.73;;;5.10;78.40;;;;;;5054679;28;20025;-75
2022/04/03 05:23:30;;;;;;;3.05;0.70;;;5.20;78.20;;;;;;5054625;28;20036;-77
2022/04/03 05:25:57;;;;;;;3.20;0.65;;;5.30;78.10;;;;;;5054015;28;20036;-76
2022/04/03 05:28:22;;;;;;;3.40;0.50;;;5.30;77.80;;;;;;5054314;28;20064;-76
2022/04/03 05:30:48;;;;;;;3.90;0.80;;;5.40;77.60;;;;;;5054476;28;20110;-76
2022/04/03 05:33:15;;;;;;;3.03;0.50;;;5.50;76.90;;;;;;5054623;28;20469;-76
2022/04/03 05:35:41;;;;;;;1.77;0.60;;;5.40;76.50;;;;;;5054372;28;20119;-77
2022/04/03 05:38:07;;;;;;;2.05;0.60;;;5.50;76.30;;;;;;5054571;28;20094;-76
2022/04/03 05:40:33;;;;;;;2.28;0.70;;;5.50;76.00;;;;;;5053707;28;20040;-77
2022/04/03 05:42:59;;;;;;;3.30;0.90;;;5.60;75.80;;;;;;5054213;28;20028;-76
2022/04/03 05:45:25;;;;;;;2.33;0.90;;;5.50;75.90;;;;;;5054403;28;20033;-76
2022/04/03 05:47:51;;;;;;;3.13;1.33;;;5.60;76.20;;;;;;5054768;28;20395;-76
2022/04/03 05:50:17;;;;;;;1.63;0.98;;;5.70;76.70;;;;;;5052934;28;20464;-77
2022/04/03 05:52:52;;;;;;;5.50;1.30;;;5.70;77.10;;;;;;5054497;28;20108;-77
2022/04/03 05:55:19;;;;;;;4.00;1.60;;;5.70;77.50;;;;;;5053455;28;20048;-76
2022/04/03 05:57:48;;;;;;;5.78;2.00;;;5.70;77.80;;;;;;5054391;28;20358;-77
2022/04/03 06:00:15;;;;;;;3.63;2.53;;;5.80;77.90;;;;;;5053565;28;20421;-77
2022/04/03 06:02:47;;;;;;;5.30;2.15;;;5.80;77.90;;;;;;5052985;28;20025;-76
2022/04/03 06:05:13;;;;;;;6.78;2.40;;;5.80;77.70;;;;;;5053537;28;20021;-76
2022/04/03 06:07:39;;;;;;;5.57;1.70;;;5.80;77.50;;;;;;5054065;28;20082;-76
2022/04/03 06:10:05;;;;;;;2.38;1.35;;;5.80;77.50;;;;;;5053157;28;20438;-76
2022/04/03 06:12:31;;;;;;;2.42;1.27;;;5.80;77.40;;;;;;5053690;28;20029;-76
2022/04/03 06:14:56;;;;;;;2.85;1.02;;;5.80;77.30;;;;;;5053861;28;20043;-76
2022/04/03 06:17:22;;;;;;;2.50;1.10;;;5.80;77.30;;;;;;5053534;28;20083;-77
2022/04/03 06:19:49;;;;;;;1.83;0.70;;;5.80;77.40;;;;;;5053849;28;20025;-76
2022/04/03 06:22:14;;;;;;;3.30;1.05;;;5.80;77.50;;;;;;5053645;28;20040;-77
2022/04/03 06:24:40;;;;;;;3.60;1.10;;;5.80;77.70;;;;;;5053504;28;20380;-76
2022/04/03 06:27:08;;;;;;;5.07;1.30;;;5.80;77.90;;;;;;5052747;28;20035;-77
2022/04/03 06:29:34;;;;;;;5.40;1.45;;;5.80;78.30;;;;;;5053749;28;20028;-77
2022/04/03 06:32:00;;;;;;;2.75;0.98;;;5.80;78.60;;;;;;5052631;28;20388;-75
2022/04/03 06:34:25;;;;;;;2.42;1.25;;;5.80;79.00;;;;;;5053190;28;20037;-74
2022/04/03 06:36:52;;;;;;;5.55;1.20;;;5.80;78.90;;;;;;5053428;28;20135;-75
2022/04/03 06:39:18;;;;;;;3.20;1.27;;;5.90;78.80;;;;;;5053162;28;20051;-75
2022/04/03 06:41:43;;;;;;;4.43;1.27;;;5.90;78.60;;;;;;5053338;28;20029;-74
2022/04/03 06:44:09;;;;;;;4.60;1.30;;;5.90;78.40;;;;;;5053167;28;20453;-73
2022/04/03 06:46:35;;;;;;;5.50;1.25;;;5.90;78.50;;;;;;5052797;28;20523;-76
2022/04/03 06:49:01;;;;;;;5.30;1.10;;;5.90;78.70;;;;;;5052642;28;20033;-75
2022/04/03 06:51:26;;;;;;;3.95;1.15;;;5.90;79.00;;;;;;5053027;28;20024;-76
2022/04/03 06:53:52;;;;;;;2.67;1.17;;;5.90;79.30;;;;;;5053476;28;20423;-76
2022/04/03 06:56:22;;;;;;;5.20;1.73;;;5.90;80.00;;;;;;5052604;28;20032;-75
2022/04/03 06:58:48;;;;;;;4.18;1.27;;;5.80;80.40;;;;;;5052395;28;20025;-74
2022/04/03 07:01:13;;;;;;;5.30;1.40;;;5.80;81.50;;;;;;5053173;28;20028;-74
2022/04/03 07:03:39;;;;;;;5.38;1.85;;;5.70;81.10;;;;;;5052782;28;21520;-75
2022/04/03 07:06:04;;;;;;;4.63;1.83;;;5.80;81.40;;;;;;5052971;28;20029;-76
2022/04/03 07:08:30;;;;;;;5.32;2.00;;;5.90;82.90;;;;;;5053105;28;20464;-76
2022/04/03 07:10:56;;;;;;;3.25;1.95;;;6.00;84.10;;;;;;5052701;28;20053;-75
2022/04/03 07:13:22;;;;;;;4.65;1.20;;;6.20;84.90;;;;;;5052409;28;20029;-75
2022/04/03 07:15:49;;;;;;;4.55;1.30;;;6.20;85.70;;;;;;5051872;28;20052;-74
2022/04/03 07:18:16;;;;;;;3.53;1.73;;;6.40;84.60;;;;;;5052821;28;20029;-74
2022/04/03 07:20:42;;;;;;;5.28;1.73;;;6.40;84.60;;;;;;5052689;28;20028;-77
2022/04/03 07:23:07;;;;;;;3.17;1.77;;;6.70;84.60;;;;;;5051944;28;20033;-79
2022/04/03 07:25:33;;;;;;;3.33;1.60;;;6.80;84.30;;;;;;5052953;28;20040;-79
2022/04/03 07:27:59;;;;;;;7.93;2.22;;;6.90;84.00;;;;;;5052538;28;20021;-77
2022/04/03 07:30:24;;;;;;;5.03;1.90;;;7.00;84.20;;;;;;5051035;28;20068;-78
2022/04/03 07:32:53;;;;;;;4.68;2.03;;;7.10;83.70;;;;;;5050883;28;20460;-76
2022/04/03 07:35:18;;;;;;;4.97;2.13;;;7.20;83.60;;;;;;5051771;28;20116;-77
2022/04/03 07:37:44;;;;;;;3.63;2.00;;;7.30;83.60;;;;;;5052655;28;20093;-76
2022/04/03 07:40:11;;;;;;;3.15;1.80;;;7.40;83.10;;;;;;5051660;28;20469;-77
2022/04/03 07:42:39;;;;;;;2.72;1.60;;;7.40;83.60;;;;;;5052018;28;20392;-76
2022/04/03 07:45:05;;;;;;;4.65;1.40;;;7.50;83.50;;;;;;5051713;28;20148;-77
2022/04/03 07:47:30;;;;;;;6.38;1.50;;;7.60;82.70;;;;;;5052132;28;20029;-80
2022/04/03 07:49:56;;;;;;;3.72;1.23;;;7.60;81.60;;;;;;5052240;28;20112;-79
2022/04/03 07:52:22;;;;;;;3.22;1.30;;;7.70;81.30;;;;;;5052420;28;20437;-77
2022/04/03 07:54:50;;;;;;;6.75;1.45;;;7.90;81.00;;;;;;5051849;28;20037;-79
2022/04/03 07:57:19;;;;;;;3.20;1.35;;;7.90;80.20;;;;;;5052020;28;20035;-78
2022/04/03 07:59:45;;;;;;;4.65;1.60;;;7.90;80.10;;;;;;5049909;28;20025;-80
2022/04/03 08:02:11;;;;;;;5.65;1.60;;;8.10;80.10;;;;;;5051921;28;20087;-77
2022/04/03 08:04:36;;;;;;;4.70;1.45;;;8.20;79.60;;;;;;5052134;28;20511;-75
2022/04/03 08:07:02;;;;;;;3.28;0.70;;;8.20;79.00;;;;;;5052274;28;20350;-78
2022/04/03 08:09:28;;;;;;;3.33;0.70;;;8.30;76.60;;;;;;5052056;28;20127;-84
2022/04/03 08:11:53;;;;;;;2.60;0.55;;;8.40;75.90;;;;;;5052200;28;20380;-82
2022/04/03 08:14:22;;;;;;;6.38;0.70;;;8.40;75.60;;;;;;5052045;28;20025;-82
2022/04/03 08:16:47;;;;;;;1.20;0.60;;;8.30;76.00;;;;;;5052028;28;20040;-83
2022/04/03 08:19:13;;;;;;;2.15;0.82;;;8.30;76.00;;;;;;5051995;28;20029;-80
2022/04/03 08:21:39;;;;;;;1.27;0.40;;;8.40;76.30;;;;;;5050398;28;20107;-81
2022/04/03 08:24:05;;;;;;;3.22;0.60;;;8.60;75.40;;;;;;5050296;28;20479;-81
2022/04/03 08:26:30;;;;;;;1.65;0.40;;;8.80;75.30;;;;;;5051945;28;20112;-82
2022/04/03 08:28:56;;;;;;;2.95;0.40;;;9.00;73.50;;;;;;5053951;28;20195;-81
2022/04/03 08:31:23;;;;;;;1.77;0.45;;;9.10;71.90;;;;;;5055859;28;20087;-81
2022/04/03 08:33:52;;;;;;;3.05;0.50;;;9.20;71.20;;;;;;5055447;28;20100;-80
2022/04/03 08:36:18;;;;;;;2.45;0.40;;;9.00;70.70;;;;;;5055455;28;20037;-82
2022/04/03 08:38:44;;;;;;;2.03;0.70;;;8.90;70.30;;;;;;5055184;28;20530;-83
2022/04/03 08:41:10;;;;;;;2.88;0.50;;;8.80;70.20;;;;;;5055143;28;20033;-80
2022/04/03 08:43:40;;;;;;;2.30;0.90;;;8.60;69.60;;;;;;5055145;28;20035;-78
2022/04/03 08:46:07;;;;;;;3.40;0.80;;;8.50;70.60;;;;;;5055065;28;20107;-80
2022/04/03 08:48:33;;;;;;;2.65;0.60;;;8.40;70.90;;;;;;5055104;28;20540;-78
2022/04/03 08:51:02;;;;;;;4.13;0.77;;;8.50;71.20;;;;;;5055038;28;20112;-79
2022/04/03 08:53:30;;;;;;;4.20;0.90;;;8.60;70.80;;;;;;5055496;28;20017;-78
2022/04/03 08:55:57;;;;;;;5.22;0.50;;;8.70;70.00;;;;;;5055469;28;20033;-80
2022/04/03 08:58:22;;;;;;;3.10;0.50;;;8.80;69.90;;;;;;5054765;28;20051;-79
2022/04/03 09:00:48;;;;;;;3.00;0.60;;;9.00;69.40;;;;;;5055332;28;20029;-80
2022/04/03 09:03:13;;;;;;;4.65;0.85;;;9.20;70.20;;;;;;5055509;28;20017;-78
2022/04/03 09:05:41;;;;;;;1.73;0.40;;;9.30;69.20;;;;;;5054491;28;20024;-77
2022/04/03 09:08:08;;;;;;;4.13;0.70;;;9.40;68.50;;;;;;5054714;28;20033;-82
2022/04/03 09:10:34;;;;;;;2.17;0.47;;;9.60;68.40;;;;;;5053710;28;20049;-83
2022/04/03 09:13:03;;;;;;;2.58;0.50;;;9.70;67.30;;;;;;5052051;28;20163;-83
2022/04/03 09:15:31;;;;;;;3.22;0.70;;;9.80;66.90;;;;;;5054569;28;20033;-83
2022/04/03 09:18:01;;;;;;;3.25;0.40;;;10.00;67.00;;;;;;5054606;28;20036;-84
2022/04/03 09:20:31;;;;;;;2.95;0.60;;;10.20;67.50;;;;;;5054700;28;20033;-85
2022/04/03 09:23:09;;;;;;;8.27;0.52;;;10.40;68.40;;;;;;5054231;28;20384;-84
2022/04/03 09:25:40;;;;;;;2.08;0.30;;;10.30;65.20;;;;;;5044881;28;20071;-84
2022/04/03 09:28:08;;;;;;;5.93;0.40;;;10.20;64.30;;;;;;5054677;28;20039;-84
2022/04/03 09:30:37;;;;;;;1.58;0.40;;;10.20;65.20;;;;;;5055046;28;20028;-84
2022/04/03 09:33:06;;;;;;;2.42;0.70;;;10.30;64.60;;;;;;5054039;28;20029;-84
2022/04/03 09:35:52;;;;;;;4.40;0.50;;;10.30;63.60;;;;;;5038629;28;20037;-81
2022/04/03 09:38:18;;;;;;;2.55;0.60;;;10.20;63.30;;;;;;5053860;28;20021;-85
2022/04/03 09:40:49;;;;;;;2.42;0.40;;;10.00;63.20;;;;;;5054456;28;20029;-84
2022/04/03 09:43:22;;;;;;;3.15;0.30;;;9.80;64.10;;;;;;5054306;28;20094;-82
2022/04/03 09:45:56;;;;;;;1.80;0.20;;;9.60;63.60;;;;;;5055456;28;20021;-84
2022/04/03 09:48:27;;;;;;;3.72;0.47;;;9.40;63.60;;;;;;5054274;28;20112;-82
2022/04/03 09:51:06;;;;;;;7.93;0.43;;;9.30;64.00;;;;;;5054365;28;20018;-84
2022/04/03 09:53:45;;;;;;;2.05;0.30;;;9.30;64.50;;;;;;5040230;28;20028;-87
2022/04/03 09:56:13;;;;;;;3.05;0.40;;;9.30;64.50;;;;;;5044567;28;20037;-88
2022/04/03 09:58:50;;;;;;;2.80;0.30;;;9.50;65.70;;;;;;5054518;28;20029;-87
2022/04/03 10:01:30;;;;;;;1.55;0.20;;;9.80;65.70;;;;;;5054609;28;20078;-89
2022/04/03 10:03:58;;;;;;;3.80;0.20;;;9.90;62.10;;;;;;5054309;28;20025;-85
2022/04/03 10:06:24;;;;;;;2.20;0.10;;;10.00;61.80;;;;;;5054195;28;20053;-87
2022/04/03 10:08:50;;;;;;;2.33;0.85;;;10.10;63.00;;;;;;5054985;28;20488;-88
2022/04/03 10:11:16;;;;;;;1.63;0.30;;;10.30;62.20;;;;;;5053925;28;20044;-82
2022/04/03 10:13:45;;;;;;;3.03;0.20;;;10.30;62.10;;;;;;5053552;28;20124;-80
2022/04/03 10:16:18;;;;;;;1.45;0.15;;;10.30;61.40;;;;;;5053641;28;20044;-84
2022/04/03 10:18:45;;;;;;;8.15;0.47;;;10.20;62.00;;;;;;5053980;28;20025;-88
2022/04/03 10:21:26;;;;;;;2.53;0.25;;;10.30;65.60;;;;;;5053888;28;20044;-84
2022/04/03 10:23:56;;;;;;;2.78;0.50;;;10.40;62.10;;;;;;5053584;28;20028;-79
2022/04/03 10:26:23;;;;;;;1.38;0.28;;;10.30;61.50;;;;;;5053070;28;20078;-79
2022/04/03 10:28:56;;;;;;;3.50;0.70;;;10.00;61.00;;;;;;5053268;28;20025;-79
2022/04/03 10:31:22;;;;;;;;;;;9.80;61.90;;;;;;5053831;28;20040;-78
2022/04/03 10:33:50;;;;;;;2.13;0.60;;;9.70;62.20;;;;;;5052928;28;19909;-81
2022/04/03 10:36:24;;;;;;;2.42;0.20;;;9.60;61.40;;;;;;5053046;28;20063;-81
2022/04/03 10:39:22;;;;;;;1.30;0.20;;;9.50;61.80;;;;;;5053116;28;20353;-81
2022/04/03 10:41:47;;;;;;;3.58;0.20;;;9.50;62.30;;;;;;5052935;28;20420;-82
2022/04/03 10:44:22;;;;;;;2.20;0.30;;;9.50;62.40;;;;;;5053246;28;20029;-82
2022/04/03 10:47:03;;;;;;;1.80;0.30;;;9.60;63.00;;;;;;5053465;28;20028;-87
2022/04/03 10:50:03;;;;;;;7.75;0.45;;;9.50;63.20;;;;;;5051807;28;20350;-86
2022/04/03 10:52:40;;;;;;;3.58;0.55;;;9.60;63.70;;;;;;5031117;28;20063;-87
2022/04/03 10:55:15;;;;;;;5.30;0.30;;;9.60;64.10;;;;;;5050530;28;20045;-88
2022/04/03 10:57:50;;;;;;;2.45;0.40;;;9.70;64.60;;;;;;5052430;28;20108;-86
2022/04/03 11:00:16;;;;;;;1.90;0.35;;;9.80;64.80;;;;;;5052340;28;20036;-86
2022/04/03 11:02:50;;;;;;;1.42;0.40;;;9.90;65.00;;;;;;5052688;28;20017;-85
2022/04/03 11:05:22;;;;;;;3.22;0.30;;;9.80;64.70;;;;;;5052984;28;20068;-85
2022/04/03 11:07:48;;;;;;;1.35;0.50;;;9.80;63.70;;;;;;5052936;28;20017;-86
2022/04/03 11:10:13;;;;;;;2.53;0.43;;;9.70;63.70;;;;;;5052514;28;20388;-88
2022/04/03 11:12:55;;;;;;;6.13;0.80;;;9.50;64.30;;;;;;5053154;28;20029;-88
2022/04/03 11:15:23;;;;;;;0.95;0.30;;;9.40;64.60;;;;;;5052230;28;20396;-86
2022/04/03 11:17:52;;;;;;;1.92;0.30;;;9.20;64.50;;;;;;5052507;28;20089;-87
2022/04/03 11:20:30;;;;;;;3.63;0.50;;;9.20;65.10;;;;;;5052532;28;20438;-80
2022/04/03 11:22:58;;;;;;;2.00;0.50;;;9.20;65.40;;;;;;5045948;28;20079;-77
2022/04/03 11:25:23;;;;;;;3.50;0.50;;;9.20;65.20;;;;;;5052962;28;20040;-77
2022/04/03 11:27:50;;;;;;;2.72;0.40;;;9.20;64.90;;;;;;5053214;28;20518;-77
2022/04/03 11:30:18;;;;;;;2.88;0.40;;;9.30;64.60;;;;;;5052453;28;20060;-77
2022/04/03 11:32:46;;;;;;;3.33;0.50;;;9.30;64.40;;;;;;5033156;28;20022;-77
2022/04/03 11:35:12;;;;;;;2.88;0.30;;;9.30;64.60;;;;;;5051472;28;20041;-77
2022/04/03 11:37:43;;;;;;;5.28;0.50;;;9.30;64.60;;;;;;5052442;28;20025;-78
2022/04/03 11:40:10;;;;;;;3.80;0.43;;;9.30;64.70;;;;;;5050380;28;20033;-78
2022/04/03 11:42:36;;;;;;;4.60;0.60;;;9.20;64.50;;;;;;5051397;28;20380;-79
2022/04/03 11:45:06;;;;;;;1.77;0.20;;;9.20;64.90;;;;;;5051392;28;20025;-77
2022/04/03 11:47:32;;;;;;;1.00;0.20;;;9.20;64.80;;;;;;5050003;28;20358;-78
2022/04/03 11:50:09;;;;;;;1.80;0.20;;;9.20;64.60;;;;;;5051037;28;20035;-78
2022/04/03 11:52:37;;;;;;;6.95;1.58;;;9.20;64.10;;;;;;5051441;28;20052;-78
2022/04/03 11:55:09;;;;;;;1.42;0.30;;;9.30;64.40;;;;;;5051508;28;20073;-78
2022/04/03 11:57:35;;;;;;;0.63;0.30;;;9.30;64.00;;;;;;5052346;28;20044;-80
2022/04/03 12:00:01;;;;;;;3.92;0.40;;;9.30;64.00;;;;;;5051975;28;20396;-81
2022/04/03 12:02:26;;;;;;;2.17;0.20;;;9.30;63.90;;;;;;5056321;28;20029;-82
2022/04/03 12:04:56;;;;;;;1.33;0.20;;;9.30;64.40;;;;;;5056422;28;20492;-81
2022/04/03 12:07:22;;;;;;;4.57;0.50;;;9.30;64.60;;;;;;5055808;28;20482;-76
2022/04/03 12:09:47;;;;;;;2.92;0.40;;;9.30;64.60;;;;;;5056003;28;20136;-77
2022/04/03 12:12:13;;;;;;;1.65;0.45;;;9.10;64.70;;;;;;5055734;28;20479;-78
2022/04/03 12:14:42;;;;;;;4.30;0.50;;;9.10;65.60;;;;;;5055486;28;20487;-79
2022/04/03 12:17:12;;;;;;;3.88;0.40;;;9.00;66.70;;;;;;5055868;28;20067;-79
2022/04/03 12:19:44;;;;;;;1.73;0.50;;;9.00;67.50;;;;;;5056043;28;20028;-75
2022/04/03 12:22:12;;;;;;;3.63;0.40;;;8.90;67.90;;;;;;5055812;28;20029;-79
2022/04/03 12:24:39;;;;;;;1.55;0.38;;;8.80;68.40;;;;;;5055284;28;20029;-78
2022/04/03 12:27:14;;;;;;;2.53;0.50;;;8.80;68.90;;;;;;5056021;28;20029;-75
2022/04/03 12:29:45;;;;;;;1.33;0.40;;;8.90;69.30;;;;;;5053961;28;20055;-76
2022/04/03 12:32:16;;;;;;;1.50;0.50;;;8.90;69.40;;;;;;5054524;28;20037;-77
2022/04/03 12:34:44;;;;;;;2.85;0.40;;;9.00;69.20;;;;;;5053442;28;20036;-77
2022/04/03 12:37:11;;;;;;;1.35;0.30;;;9.00;69.10;;;;;;5054660;28;20078;-78
2022/04/03 12:39:45;;;;;;;3.95;0.40;;;9.10;69.40;;;;;;5054134;28;20029;-77
2022/04/03 12:42:10;;;;;;;3.17;0.25;;;9.10;69.80;;;;;;5052575;28;20104;-80
2022/04/03 12:44:53;;;;;;;4.20;0.80;;;9.20;70.10;;;;;;5054282;28;20025;-79
2022/04/03 12:47:20;;;;;;;7.53;0.40;;;9.30;70.10;;;;;;5053991;28;20036;-78
2022/04/03 12:49:50;;;;;;;4.40;0.28;;;9.40;69.20;;;;;;5054335;28;20351;-78
2022/04/03 12:52:36;;;;;;;3.63;0.28;;;9.40;68.90;;;;;;5053709;28;20447;-79
2022/04/03 12:55:02;;;;;;;0.43;0.10;;;9.40;68.20;;;;;;5053562;28;20041;-79
2022/04/03 13:00:17;;;;;;;2.05;0.35;;;9.40;68.30;;;;;;5053137;28;20040;-83
2022/04/03 13:02:45;;;;;;;0.75;0.10;;;9.40;68.40;;;;;;5053952;28;20841;-77